Time;durP1;ratioP1;P1;durP2;ratioP2;P2;SDS_P1;SDS_P2;PMS_P1;PMS_P2;Temp;Humidity;BMP_temperature;BMP_pressure;BME280_temperature;BME280_humidity;BME280_pressure;Samples;Min_cycle;Max_cycle;Signal;HPM_P1;HPM_P2
2023/01/17 00:01:55;;;;;;;10.63;6.20;;;;;;;;;;4419184;32;317136;-81
2023/01/17 00:09:56;;;;;;;13.23;5.83;;;;;;;;;;4420563;32;317230;-81
2023/01/17 00:12:24;;;;;;;7.37;5.10;;;;;;;;;;4409109;32;318788;-84
2023/01/17 00:14:52;;;;;;;7.03;5.87;;;;;;;;;;4420130;32;316392;-81
2023/01/17 00:17:20;;;;;;;9.63;5.37;;;;;;;;;;4408631;32;333821;-81
2023/01/17 01:34:45;;;;;;;7.13;5.40;;;;;;;;;;4407282;32;387918;-82
2023/01/17 01:37:13;;;;;;;7.20;5.27;;;;;;;;;;4409112;32;317195;-82
2023/01/17 01:39:39;;;;;;;8.27;5.07;;;;;;;;;;4419187;32;316585;-81
2023/01/17 01:42:13;;;;;;;5.87;5.07;;;;;;;;;;4409092;32;317198;-82
2023/01/17 01:44:45;;;;;;;5.83;4.67;;;;;;;;;;4419349;32;316492;-81
2023/01/17 01:47:15;;;;;;;6.00;4.20;;;;;;;;;;4408897;32;317567;-81
2023/01/17 01:49:42;;;;;;;7.67;3.63;;;;;;;;;;4418305;32;317360;-82
2023/01/17 01:52:11;;;;;;;8.20;5.43;;;;;;;;;;4407508;32;317445;-82
2023/01/17 01:54:44;;;;;;;4.63;4.10;;;;;;;;;;4417695;32;316496;-82
2023/01/17 01:57:15;;;;;;;5.07;4.10;;;;;;;;;;4407270;32;341058;-82
2023/01/17 01:59:46;;;;;;;8.93;4.50;;;;;;;;;;4417863;32;316418;-81
2023/01/17 02:02:14;;;;;;;3.70;3.23;;;;;;;;;;4407656;32;317222;-82
2023/01/17 02:04:45;;;;;;;4.30;3.60;;;;;;;;;;4418923;32;317200;-81
2023/01/17 02:07:16;;;;;;;5.33;4.17;;;;;;;;;;4408816;32;317405;-82
2023/01/17 02:09:45;;;;;;;5.30;4.03;;;;;;;;;;4417785;32;317256;-82
2023/01/17 02:12:12;;;;;;;5.47;4.60;;;;;;;;;;4408642;32;317533;-82
2023/01/17 02:14:39;;;;;;;7.93;4.37;;;;;;;;;;4417198;32;317290;-82
2023/01/17 02:17:24;;;;;;;6.03;4.10;;;;;;;;;;4407161;32;316863;-82
2023/01/17 02:20:28;;;;;;;5.53;4.93;;;;;;;;;;4417953;32;343713;-82
2023/01/17 02:23:29;;;;;;;6.13;4.30;;;;;;;;;;4404504;32;417360;-82
2023/01/17 02:26:39;;;;;;;6.73;4.27;;;;;;;;;;4405773;32;417368;-82
2023/01/17 02:29:41;;;;;;;8.30;4.67;;;;;;;;;;4402698;32;417191;-82
2023/01/17 02:32:14;;;;;;;6.37;4.83;;;;;;;;;;4408085;32;317229;-83
2023/01/17 02:34:47;;;;;;;24.10;11.10;;;;;;;;;;4418155;32;316679;-83
2023/01/17 02:37:20;;;;;;;24.10;11.33;;;;;;;;;;4407931;32;319482;-82
2023/01/17 02:39:54;;;;;;;25.67;13.40;;;;;;;;;;4418234;32;318687;-82
2023/01/17 02:42:25;;;;;;;13.07;7.87;;;;;;;;;;4408145;32;319263;-82
2023/01/17 02:44:52;;;;;;;5.60;3.27;;;;;;;;;;4418413;32;318146;-82
2023/01/17 02:47:24;;;;;;;5.83;3.93;;;;;;;;;;4407018;32;317762;-84
2023/01/17 02:49:52;;;;;;;5.10;4.33;;;;;;;;;;4418343;32;316641;-82
2023/01/17 02:52:34;;;;;;;6.43;4.73;;;;;;;;;;4406764;32;317040;-82
2023/01/17 02:55:11;;;;;;;4.80;4.30;;;;;;;;;;4418372;32;317203;-82
2023/01/17 02:57:54;;;;;;;7.53;4.47;;;;;;;;;;4403925;32;417610;-82
2023/01/17 03:00:26;;;;;;;8.67;4.07;;;;;;;;;;4408190;32;317532;-82
2023/01/17 03:03:02;;;;;;;6.53;3.90;;;;;;;;;;4417756;32;317247;-82
2023/01/17 03:05:35;;;;;;;4.93;3.50;;;;;;;;;;4405367;32;417564;-82
2023/01/17 03:08:03;;;;;;;4.20;3.53;;;;;;;;;;4416766;32;317208;-81
2023/01/17 03:10:32;;;;;;;6.40;4.07;;;;;;;;;;4405120;32;416645;-82
2023/01/17 03:13:00;;;;;;;4.20;3.30;;;;;;;;;;4416634;32;317254;-82
2023/01/17 03:15:30;;;;;;;4.50;3.33;;;;;;;;;;4405655;32;344347;-81
2023/01/17 03:18:01;;;;;;;5.43;3.23;;;;;;;;;;4417849;32;317370;-81
2023/01/17 03:20:28;;;;;;;7.20;3.87;;;;;;;;;;4404125;32;416742;-82
2023/01/17 03:22:55;;;;;;;5.73;3.80;;;;;;;;;;4416660;32;317677;-82
2023/01/17 03:25:22;;;;;;;9.17;4.07;;;;;;;;;;4407862;32;316861;-82
2023/01/17 03:27:48;;;;;;;3.77;3.43;;;;;;;;;;4417580;32;317073;-82
2023/01/17 03:30:16;;;;;;;4.63;3.80;;;;;;;;;;4406603;32;317341;-82
2023/01/17 03:32:43;;;;;;;6.20;3.70;;;;;;;;;;4417645;32;317524;-82
2023/01/17 03:35:11;;;;;;;5.43;3.53;;;;;;;;;;4407624;32;316459;-83
2023/01/17 03:37:38;;;;;;;4.53;3.83;;;;;;;;;;4417641;32;317591;-82
2023/01/17 03:40:06;;;;;;;5.17;3.63;;;;;;;;;;4407760;32;317398;-81
2023/01/17 03:42:33;;;;;;;8.23;4.00;;;;;;;;;;4417452;32;317704;-82
2023/01/17 03:45:00;;;;;;;3.70;3.13;;;;;;;;;;4417569;32;316521;-82
2023/01/17 03:47:27;;;;;;;6.10;3.80;;;;;;;;;;4407805;32;317714;-82
2023/01/17 03:49:53;;;;;;;5.10;3.53;;;;;;;;;;4417233;32;317118;-82
2023/01/17 03:52:21;;;;;;;4.83;3.30;;;;;;;;;;4406301;32;317690;-82
2023/01/17 03:54:48;;;;;;;3.83;3.10;;;;;;;;;;4416606;32;317168;-81
2023/01/17 03:57:15;;;;;;;3.80;3.40;;;;;;;;;;4406504;32;347513;-82
2023/01/17 03:59:42;;;;;;;4.87;2.60;;;;;;;;;;4419563;32;316574;-82
2023/01/17 04:02:08;;;;;;;3.57;2.30;;;;;;;;;;4409386;32;316628;-82
2023/01/17 04:04:35;;;;;;;6.33;2.27;;;;;;;;;;4416219;32;317241;-81
2023/01/17 04:07:02;;;;;;;4.33;2.73;;;;;;;;;;4415260;32;345234;-82
2023/01/17 04:09:34;;;;;;;6.60;2.40;;;;;;;;;;4404778;32;416002;-82
2023/01/17 04:12:01;;;;;;;7.47;2.97;;;;;;;;;;4417307;32;317373;-82
2023/01/17 04:14:28;;;;;;;4.10;3.30;;;;;;;;;;4407923;32;317705;-82
2023/01/17 04:16:55;;;;;;;4.43;2.30;;;;;;;;;;4419190;32;317302;-82
2023/01/17 04:19:24;;;;;;;2.20;2.00;;;;;;;;;;4410477;32;317409;-82
2023/01/17 04:21:51;;;;;;;3.57;2.33;;;;;;;;;;4420031;32;317433;-82
2023/01/17 04:24:17;;;;;;;3.83;2.93;;;;;;;;;;4410143;32;317475;-82
2023/01/17 04:26:46;;;;;;;4.80;2.67;;;;;;;;;;4418695;32;316560;-82
2023/01/17 04:29:12;;;;;;;4.97;3.03;;;;;;;;;;4409093;32;317280;-82
2023/01/17 04:31:39;;;;;;;5.10;3.40;;;;;;;;;;4418941;32;317435;-82
2023/01/17 04:34:06;;;;;;;5.00;3.40;;;;;;;;;;4410020;32;316500;-83
2023/01/17 04:36:32;;;;;;;15.17;9.30;;;;;;;;;;4419747;32;317721;-82
2023/01/17 04:39:02;;;;;;;6.40;2.80;;;;;;;;;;4418709;32;318389;-82
2023/01/17 04:41:29;;;;;;;6.03;3.63;;;;;;;;;;4406924;32;416217;-82
2023/01/17 04:43:57;;;;;;;2.57;2.37;;;;;;;;;;4418705;32;317259;-82
2023/01/17 04:46:24;;;;;;;4.33;2.40;;;;;;;;;;4409936;32;317528;-83
2023/01/17 04:48:50;;;;;;;9.07;5.07;;;;;;;;;;4419641;32;317298;-83
2023/01/17 04:51:17;;;;;;;4.33;3.03;;;;;;;;;;4408623;32;317200;-83
2023/01/17 04:53:44;;;;;;;19.10;8.23;;;;;;;;;;4419584;32;317847;-83
2023/01/17 04:56:11;;;;;;;21.57;11.43;;;;;;;;;;4409617;32;318307;-83
2023/01/17 04:58:37;;;;;;;12.03;3.90;;;;;;;;;;4419386;32;319869;-82
2023/01/17 05:01:08;;;;;;;3.43;2.60;;;;;;;;;;4408133;32;317455;-83
2023/01/17 05:03:35;;;;;;;2.20;2.00;;;;;;;;;;4419640;32;317206;-82
2023/01/17 05:06:02;;;;;;;3.47;2.10;;;;;;;;;;4416957;32;359206;-82
2023/01/17 05:08:29;;;;;;;2.90;1.83;;;;;;;;;;4405275;32;416441;-82
2023/01/17 05:10:56;;;;;;;2.80;2.20;;;;;;;;;;4419166;32;316623;-82
2023/01/17 05:13:23;;;;;;;3.20;2.20;;;;;;;;;;4409492;32;317121;-82
2023/01/17 05:15:50;;;;;;;4.30;2.00;;;;;;;;;;4416633;32;317267;-82
2023/01/17 05:18:18;;;;;;;3.40;2.33;;;;;;;;;;4409530;32;317072;-82
2023/01/17 05:20:45;;;;;;;3.30;2.20;;;;;;;;;;4418385;32;317589;-83
2023/01/17 05:23:12;;;;;;;4.40;2.97;;;;;;;;;;4408216;32;317193;-83
2023/01/17 05:25:42;;;;;;;4.70;3.07;;;;;;;;;;4417151;32;339598;-82
2023/01/17 05:28:10;;;;;;;3.03;2.33;;;;;;;;;;4408045;32;317622;-83
2023/01/17 05:30:37;;;;;;;4.03;2.63;;;;;;;;;;4419149;32;316599;-83
2023/01/17 05:33:04;;;;;;;2.73;1.97;;;;;;;;;;4409050;32;317388;-86
2023/01/17 05:35:32;;;;;;;4.47;2.63;;;;;;;;;;4417792;32;317917;-82
2023/01/17 05:37:59;;;;;;;5.03;2.47;;;;;;;;;;4418605;32;317254;-82
2023/01/17 05:40:27;;;;;;;4.33;2.73;;;;;;;;;;4408521;32;317486;-82
2023/01/17 05:42:57;;;;;;;4.37;2.83;;;;;;;;;;4417288;32;316696;-82
2023/01/17 05:45:25;;;;;;;4.90;3.10;;;;;;;;;;4408629;32;317219;-83
2023/01/17 05:47:53;;;;;;;5.43;2.40;;;;;;;;;;4415904;32;317765;-82
2023/01/17 05:50:22;;;;;;;3.83;3.17;;;;;;;;;;4407702;32;317255;-82
2023/01/17 05:52:52;;;;;;;3.17;2.37;;;;;;;;;;4417332;32;346459;-81
2023/01/17 05:55:19;;;;;;;3.27;2.30;;;;;;;;;;4408443;32;316532;-81
2023/01/17 05:57:46;;;;;;;5.63;3.97;;;;;;;;;;4417546;32;344854;-81
2023/01/17 06:00:15;;;;;;;7.97;4.23;;;;;;;;;;4407331;32;317706;-81
2023/01/17 06:02:42;;;;;;;6.17;4.40;;;;;;;;;;4417845;32;317151;-81
2023/01/17 06:05:12;;;;;;;5.83;3.97;;;;;;;;;;4406718;32;317466;-82
2023/01/17 06:07:39;;;;;;;6.87;4.03;;;;;;;;;;4417827;32;316617;-82
2023/01/17 06:10:09;;;;;;;6.63;3.87;;;;;;;;;;4407789;32;317355;-82
2023/01/17 06:12:36;;;;;;;7.80;3.43;;;;;;;;;;4417812;32;317305;-82
2023/01/17 06:15:03;;;;;;;5.47;3.40;;;;;;;;;;4417513;32;316485;-81
2023/01/17 06:17:30;;;;;;;5.63;3.90;;;;;;;;;;4403573;32;415508;-82
2023/01/17 06:19:57;;;;;;;11.20;4.03;;;;;;;;;;4417886;32;317212;-81
2023/01/17 06:22:24;;;;;;;4.77;3.57;;;;;;;;;;4407512;32;318300;-82
2023/01/17 06:24:51;;;;;;;6.60;4.37;;;;;;;;;;4417388;32;317696;-82
2023/01/17 06:27:19;;;;;;;6.00;3.83;;;;;;;;;;4407172;32;317575;-82
2023/01/17 06:29:46;;;;;;;5.37;3.60;;;;;;;;;;4417695;32;317995;-82
2023/01/17 06:32:14;;;;;;;6.90;4.00;;;;;;;;;;4405788;32;316366;-82
2023/01/17 06:34:41;;;;;;;5.97;3.63;;;;;;;;;;4409776;32;317387;-82
2023/01/17 06:37:08;;;;;;;10.23;5.07;;;;;;;;;;4406049;32;317635;-82
2023/01/17 06:39:35;;;;;;;10.10;4.10;;;;;;;;;;4416760;32;318345;-82
2023/01/17 06:42:02;;;;;;;8.97;4.37;;;;;;;;;;4415521;32;318483;-82
2023/01/17 06:44:30;;;;;;;18.10;5.40;;;;;;;;;;4403337;32;416387;-82
2023/01/17 06:46:57;;;;;;;5.20;3.60;;;;;;;;;;4416466;32;318004;-82
2023/01/17 06:49:23;;;;;;;5.77;4.23;;;;;;;;;;4405856;32;316681;-82
2023/01/17 06:51:50;;;;;;;18.57;9.87;;;;;;;;;;4416270;32;317180;-82
2023/01/17 06:54:17;;;;;;;5.77;4.03;;;;;;;;;;4405810;32;324558;-82
2023/01/17 06:56:44;;;;;;;13.80;11.33;;;;;;;;;;4417198;32;317371;-82
2023/01/17 06:59:11;;;;;;;9.77;6.47;;;;;;;;;;4407092;32;319379;-82
2023/01/17 07:01:40;;;;;;;10.37;4.33;;;;;;;;;;4416204;32;317315;-82
2023/01/17 07:04:07;;;;;;;9.23;5.43;;;;;;;;;;4406508;32;318699;-82
2023/01/17 07:06:35;;;;;;;9.60;6.10;;;;;;;;;;4417026;32;316458;-82
2023/01/17 07:09:03;;;;;;;11.67;5.03;;;;;;;;;;4415997;32;342581;-82
2023/01/17 07:11:30;;;;;;;60.90;45.50;;;;;;;;;;4403946;32;417580;-82
2023/01/17 07:13:57;;;;;;;97.00;49.17;;;;;;;;;;4416110;32;319421;-81
2023/01/17 07:16:23;;;;;;;84.30;44.20;;;;;;;;;;4405670;32;319196;-82
2023/01/17 07:18:53;;;;;;;163.97;75.20;;;;;;;;;;4415593;32;318856;-82
2023/01/17 07:21:20;;;;;;;82.67;42.70;;;;;;;;;;4406421;32;320460;-82
2023/01/17 07:23:48;;;;;;;12.27;7.43;;;;;;;;;;4415327;32;327157;-82
2023/01/17 07:26:16;;;;;;;25.57;15.07;;;;;;;;;;4405306;32;318280;-82
2023/01/17 07:28:42;;;;;;;31.17;16.50;;;;;;;;;;4415381;32;319431;-82
2023/01/17 07:31:09;;;;;;;7.10;4.83;;;;;;;;;;4405369;32;320344;-84
2023/01/17 07:33:36;;;;;;;15.93;9.17;;;;;;;;;;4416854;32;316467;-82
2023/01/17 07:36:08;;;;;;;15.07;8.03;;;;;;;;;;4416108;32;317589;-82
2023/01/17 07:38:35;;;;;;;21.40;13.20;;;;;;;;;;4403861;32;417534;-83
2023/01/17 07:41:02;;;;;;;17.60;11.13;;;;;;;;;;4416719;32;319353;-82
2023/01/17 07:43:29;;;;;;;13.87;7.17;;;;;;;;;;4407503;32;319000;-83
2023/01/17 07:45:57;;;;;;;8.53;4.87;;;;;;;;;;4419672;32;317935;-82
2023/01/17 07:48:24;;;;;;;15.37;9.53;;;;;;;;;;4406806;32;317596;-83
2023/01/17 07:50:53;;;;;;;13.13;9.20;;;;;;;;;;4418995;32;318493;-83
2023/01/17 07:53:22;;;;;;;14.03;8.47;;;;;;;;;;4408255;32;318363;-82
2023/01/17 07:55:49;;;;;;;16.37;10.53;;;;;;;;;;4417790;32;318089;-83
2023/01/17 07:58:15;;;;;;;7.73;4.67;;;;;;;;;;4408299;32;319239;-82
2023/01/17 08:00:43;;;;;;;14.30;8.80;;;;;;;;;;4420578;32;316925;-82
2023/01/17 08:03:13;;;;;;;17.43;9.60;;;;;;;;;;4410148;32;318289;-82
2023/01/17 08:05:40;;;;;;;33.07;18.87;;;;;;;;;;4420000;32;317651;-83
2023/01/17 08:08:07;;;;;;;7.17;3.80;;;;;;;;;;4409430;32;319391;-83
2023/01/17 08:10:35;;;;;;;6.40;4.80;;;;;;;;;;4418488;32;316596;-82
2023/01/17 08:13:02;;;;;;;13.10;8.13;;;;;;;;;;4419629;32;317206;-82
2023/01/17 08:15:29;;;;;;;16.27;8.83;;;;;;;;;;4405401;32;416988;-82
2023/01/17 08:17:56;;;;;;;17.70;9.67;;;;;;;;;;4417072;32;357471;-83
2023/01/17 08:20:23;;;;;;;11.10;6.20;;;;;;;;;;4409382;32;318180;-83
2023/01/17 08:22:53;;;;;;;44.57;23.30;;;;;;;;;;4418992;32;318073;-82
2023/01/17 08:25:20;;;;;;;14.87;7.20;;;;;;;;;;4408165;32;319310;-82
2023/01/17 08:27:48;;;;;;;99.33;45.27;;;;;;;;;;4418057;32;318282;-82
2023/01/17 08:30:17;;;;;;;35.10;21.87;;;;;;;;;;4408200;32;319310;-82
2023/01/17 08:32:44;;;;;;;16.57;7.10;;;;;;;;;;4417552;32;361049;-82
2023/01/17 08:35:11;;;;;;;46.77;38.17;;;;;;;;;;4409081;32;318212;-83
2023/01/17 08:37:38;;;;;;;5.30;3.43;;;;;;;;;;4418791;32;319528;-82
2023/01/17 08:40:06;;;;;;;5.13;2.83;;;;;;;;;;4408179;32;317210;-83
2023/01/17 08:42:36;;;;;;;12.13;4.63;;;;;;;;;;4417282;32;317195;-82
2023/01/17 08:45:06;;;;;;;9.50;5.00;;;;;;;;;;4417542;32;317744;-82
2023/01/17 08:47:34;;;;;;;13.03;4.30;;;;;;;;;;4406131;32;416342;-82
2023/01/17 08:50:01;;;;;;;8.23;3.80;;;;;;;;;;4417787;32;317498;-83
2023/01/17 08:52:28;;;;;;;11.03;3.93;;;;;;;;;;4406958;32;332945;-83
2023/01/17 08:54:55;;;;;;;3.10;2.37;;;;;;;;;;4418490;32;318525;-82
2023/01/17 08:57:22;;;;;;;5.00;2.87;;;;;;;;;;4407591;32;317142;-82
2023/01/17 08:59:49;;;;;;;3.50;2.53;;;;;;;;;;4419075;32;316409;-82
2023/01/17 09:02:18;;;;;;;7.20;2.30;;;;;;;;;;4406751;32;317197;-82
2023/01/17 09:04:46;;;;;;;4.13;2.47;;;;;;;;;;4419031;32;317117;-82
2023/01/17 09:07:14;;;;;;;4.90;3.43;;;;;;;;;;4407968;32;317044;-83
2023/01/17 09:09:40;;;;;;;6.60;2.70;;;;;;;;;;4417288;32;353005;-82
2023/01/17 09:12:07;;;;;;;4.30;3.20;;;;;;;;;;4408274;32;317301;-82
2023/01/17 09:14:34;;;;;;;7.07;3.07;;;;;;;;;;4417843;32;316360;-82
2023/01/17 09:17:01;;;;;;;9.17;3.40;;;;;;;;;;4417627;32;318024;-82
2023/01/17 09:19:29;;;;;;;6.47;3.83;;;;;;;;;;4408551;32;317103;-82
2023/01/17 09:21:56;;;;;;;4.47;2.90;;;;;;;;;;4417915;32;316485;-83
2023/01/17 09:24:23;;;;;;;8.37;2.93;;;;;;;;;;4412169;32;317541;-83
2023/01/17 09:26:50;;;;;;;8.90;3.30;;;;;;;;;;4417123;32;316447;-82
2023/01/17 09:29:17;;;;;;;8.70;2.67;;;;;;;;;;4407009;32;317359;-83
2023/01/17 09:31:45;;;;;;;4.80;3.27;;;;;;;;;;4418176;32;317395;-83
2023/01/17 09:34:13;;;;;;;7.80;3.30;;;;;;;;;;4407815;32;316748;-83
2023/01/17 09:36:42;;;;;;;8.43;2.60;;;;;;;;;;4416604;32;317237;-82
2023/01/17 09:39:10;;;;;;;7.97;3.07;;;;;;;;;;4405870;32;340685;-83
2023/01/17 09:41:47;;;;;;;5.27;2.93;;;;;;;;;;4416715;32;317404;-82
2023/01/17 09:44:23;;;;;;;3.93;2.67;;;;;;;;;;4406967;32;319605;-83
2023/01/17 09:46:54;;;;;;;7.23;2.60;;;;;;;;;;4418509;32;317464;-82
2023/01/17 09:49:33;;;;;;;5.43;2.37;;;;;;;;;;4407048;32;317299;-82
2023/01/17 09:52:02;;;;;;;4.57;2.40;;;;;;;;;;4417401;32;317473;-82
2023/01/17 09:54:34;;;;;;;7.33;3.47;;;;;;;;;;4403549;32;415725;-83
2023/01/17 09:57:08;;;;;;;6.73;2.40;;;;;;;;;;4417754;32;316411;-83
2023/01/17 09:59:43;;;;;;;7.17;2.63;;;;;;;;;;4405010;32;416035;-82
2023/01/17 10:02:30;;;;;;;3.27;1.93;;;;;;;;;;4407329;32;317126;-82
2023/01/17 10:05:15;;;;;;;10.10;2.77;;;;;;;;;;4417080;32;317270;-82
2023/01/17 10:07:52;;;;;;;9.43;2.40;;;;;;;;;;4402060;32;418385;-82
2023/01/17 10:10:32;;;;;;;9.70;2.70;;;;;;;;;;4406387;32;317911;-82
2023/01/17 10:13:05;;;;;;;7.77;3.20;;;;;;;;;;4416322;32;317427;-82
2023/01/17 10:15:51;;;;;;;9.00;2.57;;;;;;;;;;4402142;32;417098;-82
2023/01/17 10:18:32;;;;;;;10.30;2.43;;;;;;;;;;4405690;32;317362;-82
2023/01/17 10:21:05;;;;;;;12.33;3.13;;;;;;;;;;4417350;32;317470;-82
2023/01/17 10:24:15;;;;;;;4.47;2.77;;;;;;;;;;4404061;32;418192;-82
2023/01/17 10:26:46;;;;;;;4.80;2.50;;;;;;;;;;4404037;32;417401;-82
2023/01/17 10:29:16;;;;;;;9.10;2.90;;;;;;;;;;4407356;32;316721;-82
2023/01/17 10:31:50;;;;;;;6.03;2.93;;;;;;;;;;4417222;32;317268;-81
2023/01/17 10:34:19;;;;;;;3.67;2.27;;;;;;;;;;4405419;32;317635;-82
2023/01/17 10:36:50;;;;;;;12.53;2.80;;;;;;;;;;4415790;32;317231;-81
2023/01/17 10:39:20;;;;;;;11.97;4.60;;;;;;;;;;4405954;32;317408;-82
2023/01/17 10:41:55;;;;;;;12.80;6.07;;;;;;;;;;4417260;32;318532;-81
2023/01/17 10:44:29;;;;;;;9.80;4.57;;;;;;;;;;4406715;32;331728;-82
2023/01/17 10:46:59;;;;;;;5.97;3.73;;;;;;;;;;4416293;32;352795;-82
2023/01/17 10:49:27;;;;;;;10.67;4.33;;;;;;;;;;4407282;32;316675;-82
2023/01/17 10:52:07;;;;;;;11.33;5.10;;;;;;;;;;4416704;32;317564;-81
2023/01/17 10:54:48;;;;;;;7.20;3.43;;;;;;;;;;4403100;32;417799;-81
2023/01/17 10:57:21;;;;;;;6.47;3.20;;;;;;;;;;4405745;32;317198;-82
2023/01/17 10:59:47;;;;;;;12.37;3.10;;;;;;;;;;4417457;32;317501;-82
2023/01/17 11:02:20;;;;;;;9.77;3.67;;;;;;;;;;4406549;32;317445;-82
2023/01/17 11:04:50;;;;;;;24.37;9.60;;;;;;;;;;4416831;32;327909;-81
2023/01/17 11:07:20;;;;;;;17.80;4.40;;;;;;;;;;4406635;32;318397;-82
2023/01/17 11:09:48;;;;;;;5.37;3.37;;;;;;;;;;4417001;32;317527;-81
2023/01/17 11:12:24;;;;;;;11.97;5.80;;;;;;;;;;4405693;32;317110;-82
2023/01/17 11:15:01;;;;;;;9.10;4.10;;;;;;;;;;4416419;32;317667;-81
2023/01/17 11:17:29;;;;;;;12.47;4.57;;;;;;;;;;4405262;32;317103;-81
2023/01/17 11:20:15;;;;;;;7.40;4.90;;;;;;;;;;4415710;32;317457;-82
2023/01/17 11:22:46;;;;;;;7.03;3.80;;;;;;;;;;4403921;32;417655;-82
2023/01/17 11:25:21;;;;;;;24.47;11.70;;;;;;;;;;4406522;32;317358;-82
2023/01/17 11:28:01;;;;;;;17.67;7.43;;;;;;;;;;4414977;32;346143;-83
2023/01/17 11:30:29;;;;;;;59.07;25.50;;;;;;;;;;4405985;32;317492;-82
2023/01/17 11:32:57;;;;;;;39.00;16.40;;;;;;;;;;4415723;32;319694;-83
2023/01/17 11:35:26;;;;;;;17.60;7.63;;;;;;;;;;4405842;32;318502;-84
2023/01/17 11:37:59;;;;;;;8.73;4.10;;;;;;;;;;4415451;32;318354;-82
2023/01/17 11:40:28;;;;;;;33.83;12.63;;;;;;;;;;4407267;32;317682;-84
2023/01/17 11:43:20;;;;;;;38.07;14.87;;;;;;;;;;4416848;32;319271;-82
2023/01/17 11:46:00;;;;;;;9.23;5.10;;;;;;;;;;4402455;32;419001;-84
2023/01/17 11:48:33;;;;;;;18.13;6.70;;;;;;;;;;4406532;32;317246;-82
2023/01/17 11:51:00;;;;;;;9.47;3.40;;;;;;;;;;4416600;32;318141;-83
2023/01/17 11:53:30;;;;;;;24.27;7.93;;;;;;;;;;4406582;32;317196;-82
2023/01/17 11:56:04;;;;;;;13.67;4.03;;;;;;;;;;4416617;32;317691;-82
2023/01/17 11:58:33;;;;;;;23.20;6.87;;;;;;;;;;4404252;32;417588;-82
2023/01/17 12:01:11;;;;;;;24.93;8.90;;;;;;;;;;4415568;32;318356;-82
2023/01/17 12:04:19;;;;;;;27.47;9.90;;;;;;;;;;4402938;32;417220;-82
2023/01/17 12:06:55;;;;;;;21.13;10.17;;;;;;;;;;4373002;32;418246;-82
2023/01/17 12:09:28;;;;;;;15.00;7.43;;;;;;;;;;4406830;32;319319;-82
2023/01/17 12:15:02;;;;;;;18.43;7.17;;;;;;;;;;4404728;32;387810;-82
2023/01/17 12:17:46;;;;;;;23.20;6.23;;;;;;;;;;4403897;32;418411;-82
2023/01/17 12:20:22;;;;;;;18.70;10.23;;;;;;;;;;4406369;32;318141;-82
2023/01/17 12:23:12;;;;;;;13.30;6.97;;;;;;;;;;4416902;32;318757;-82
2023/01/17 12:26:00;;;;;;;72.23;46.00;;;;;;;;;;4402880;32;420612;-83
2023/01/17 12:28:55;;;;;;;37.93;23.77;;;;;;;;;;4407190;32;319411;-83
2023/01/17 12:31:32;;;;;;;31.30;19.40;;;;;;;;;;4396529;32;338296;-82
2023/01/17 12:34:08;;;;;;;12.73;7.03;;;;;;;;;;4416425;32;341900;-83
2023/01/17 12:36:43;;;;;;;7.57;4.77;;;;;;;;;;4403836;32;416700;-83
2023/01/17 12:39:13;;;;;;;10.40;2.80;;;;;;;;;;4408785;32;316989;-83
2023/01/17 12:41:50;;;;;;;59.17;43.30;;;;;;;;;;4419710;32;317714;-83
2023/01/17 12:44:19;;;;;;;7.70;3.90;;;;;;;;;;4409722;32;319705;-82
2023/01/17 12:46:53;;;;;;;14.37;3.27;;;;;;;;;;4418723;32;317443;-83
2023/01/17 12:49:24;;;;;;;11.60;6.17;;;;;;;;;;4409894;32;318422;-82
2023/01/17 12:51:55;;;;;;;15.23;4.37;;;;;;;;;;4417901;32;337169;-82
2023/01/17 12:54:27;;;;;;;9.03;3.53;;;;;;;;;;4409839;32;318160;-83
2023/01/17 12:56:58;;;;;;;12.70;7.57;;;;;;;;;;4418452;32;317147;-83
2023/01/17 12:59:31;;;;;;;5.03;3.40;;;;;;;;;;4409745;32;318569;-83
2023/01/17 13:02:01;;;;;;;12.40;5.87;;;;;;;;;;4418086;32;317257;-83
2023/01/17 13:04:36;;;;;;;23.77;14.23;;;;;;;;;;4408312;32;318027;-84
2023/01/17 13:07:09;;;;;;;5.53;3.70;;;;;;;;;;4417917;32;319144;-83
2023/01/17 13:09:42;;;;;;;5.13;2.43;;;;;;;;;;4406664;32;416146;-83
2023/01/17 13:12:13;;;;;;;15.63;3.40;;;;;;;;;;4409187;32;316383;-83
2023/01/17 13:14:40;;;;;;;17.83;10.37;;;;;;;;;;4419030;32;318515;-83
2023/01/17 13:17:26;;;;;;;7.43;4.37;;;;;;;;;;4407734;32;319365;-83
2023/01/17 13:19:58;;;;;;;16.83;12.90;;;;;;;;;;4418495;32;340381;-84
2023/01/17 13:22:26;;;;;;;5.60;3.63;;;;;;;;;;4407900;32;319199;-83
2023/01/17 13:25:00;;;;;;;14.73;10.37;;;;;;;;;;4419334;32;317426;-82
2023/01/17 13:27:57;;;;;;;8.83;3.57;;;;;;;;;;4407380;32;319274;-82
2023/01/17 13:30:37;;;;;;;15.90;7.13;;;;;;;;;;4409357;32;317412;-82
2023/01/17 13:33:37;;;;;;;5.00;3.37;;;;;;;;;;4414032;32;318591;-85
2023/01/17 13:36:38;;;;;;;8.50;3.03;;;;;;;;;;4401440;32;317370;-85
2023/01/17 13:39:30;;;;;;;12.43;9.10;;;;;;;;;;4408972;32;317269;-84
2023/01/17 13:42:09;;;;;;;13.37;5.33;;;;;;;;;;4417794;32;319363;-83
2023/01/17 13:44:36;;;;;;;14.27;5.47;;;;;;;;;;4404918;32;418331;-84
2023/01/17 13:47:06;;;;;;;7.13;4.17;;;;;;;;;;4418060;32;317648;-83
2023/01/17 13:49:44;;;;;;;10.57;3.77;;;;;;;;;;4405727;32;417516;-83
2023/01/17 13:52:27;;;;;;;6.50;3.00;;;;;;;;;;4406993;32;338921;-85
2023/01/17 13:54:55;;;;;;;7.50;2.63;;;;;;;;;;4417105;32;317255;-84
2023/01/17 13:57:42;;;;;;;10.30;2.97;;;;;;;;;;4407230;32;317342;-82
2023/01/17 14:00:58;;;;;;;7.57;3.70;;;;;;;;;;4407698;32;318186;-85
2023/01/17 14:04:03;;;;;;;7.53;4.40;;;;;;;;;;4407544;32;317167;-82
2023/01/17 14:06:43;;;;;;;5.37;2.67;;;;;;;;;;4404706;32;417803;-81
2023/01/17 14:09:20;;;;;;;7.43;3.57;;;;;;;;;;4408787;32;316548;-84
2023/01/17 14:11:56;;;;;;;6.67;2.90;;;;;;;;;;4418507;32;317592;-83
2023/01/17 14:14:55;;;;;;;5.47;3.07;;;;;;;;;;4408130;32;317198;-84
2023/01/17 14:17:57;;;;;;;15.33;8.60;;;;;;;;;;4380829;32;317159;-82
2023/01/17 14:20:53;;;;;;;14.35;8.88;;;;;;;;;;4407501;32;331358;-85
2023/01/17 14:23:46;;;;;;;7.17;5.27;;;;;;;;;;4407106;32;318657;-83
2023/01/17 14:26:41;;;;;;;13.00;3.97;;;;;;;;;;4405946;32;353558;-82
2023/01/17 14:29:45;;;;;;;8.57;3.70;;;;;;;;;;4397212;32;317726;-82
2023/01/17 14:32:17;;;;;;;8.07;4.20;;;;;;;;;;4406651;32;316651;-82
2023/01/17 14:34:45;;;;;;;4.40;2.53;;;;;;;;;;4416984;32;316579;-83
2023/01/17 14:37:27;;;;;;;5.83;2.73;;;;;;;;;;4408008;32;317251;-82
2023/01/17 14:39:56;;;;;;;9.50;4.07;;;;;;;;;;4418297;32;317119;-82
2023/01/17 14:42:25;;;;;;;13.53;3.80;;;;;;;;;;4407912;32;317425;-82
2023/01/17 14:45:08;;;;;;;7.63;3.77;;;;;;;;;;4417853;32;317866;-82
2023/01/17 14:47:38;;;;;;;6.87;2.77;;;;;;;;;;4404961;32;417199;-82
2023/01/17 14:50:20;;;;;;;9.97;5.20;;;;;;;;;;4408046;32;317585;-82
2023/01/17 14:52:47;;;;;;;4.70;2.50;;;;;;;;;;4415795;32;347083;-81
2023/01/17 14:55:17;;;;;;;6.00;3.00;;;;;;;;;;4406660;32;316595;-82
2023/01/17 14:57:54;;;;;;;8.23;4.70;;;;;;;;;;4417651;32;317265;-84
2023/01/17 15:00:24;;;;;;;12.33;6.13;;;;;;;;;;4405527;32;316789;-84
2023/01/17 15:02:52;;;;;;;14.63;6.10;;;;;;;;;;4417677;32;318207;-81
2023/01/17 15:05:21;;;;;;;9.03;5.87;;;;;;;;;;4406767;32;317932;-82
2023/01/17 15:07:51;;;;;;;9.73;5.00;;;;;;;;;;4416266;32;317167;-81
2023/01/17 15:10:22;;;;;;;13.87;5.40;;;;;;;;;;4407727;32;317607;-82
2023/01/17 15:12:51;;;;;;;10.87;4.93;;;;;;;;;;4416503;32;318415;-82
2023/01/17 15:15:29;;;;;;;12.70;5.10;;;;;;;;;;4407433;32;318681;-82
2023/01/17 15:18:21;;;;;;;7.13;3.97;;;;;;;;;;4417377;32;318284;-82
2023/01/17 15:20:53;;;;;;;9.53;3.20;;;;;;;;;;4398449;32;417319;-82
2023/01/17 15:23:22;;;;;;;7.20;3.90;;;;;;;;;;4406104;32;332421;-81
2023/01/17 15:25:52;;;;;;;14.10;6.43;;;;;;;;;;4416282;32;317016;-82
2023/01/17 15:28:19;;;;;;;7.30;4.20;;;;;;;;;;4406602;32;318087;-83
2023/01/17 15:31:07;;;;;;;15.93;7.50;;;;;;;;;;4416323;32;317220;-83
2023/01/17 15:33:35;;;;;;;9.70;5.57;;;;;;;;;;4403421;32;419114;-83
2023/01/17 15:36:03;;;;;;;9.57;5.43;;;;;;;;;;4416328;32;317302;-83
2023/01/17 15:38:30;;;;;;;10.30;6.67;;;;;;;;;;4403472;32;416428;-82
2023/01/17 15:41:10;;;;;;;11.13;6.33;;;;;;;;;;4416235;32;318226;-83
2023/01/17 15:43:37;;;;;;;7.93;5.43;;;;;;;;;;4402563;32;417160;-82
2023/01/17 15:46:04;;;;;;;13.50;6.77;;;;;;;;;;4407678;32;317131;-84
2023/01/17 15:48:40;;;;;;;15.53;8.20;;;;;;;;;;4416372;32;317705;-83
2023/01/17 15:51:07;;;;;;;8.57;4.90;;;;;;;;;;4406860;32;328458;-83
2023/01/17 15:53:36;;;;;;;10.10;5.07;;;;;;;;;;4417246;32;317262;-83
2023/01/17 15:59:29;;;;;;;9.37;5.43;;;;;;;;;;4462227;31;20256;-86
2023/01/17 16:01:58;;;;;;;18.53;11.07;;;;;;;;;;4416829;32;385883;-80
2023/01/17 16:04:32;;;;;;;26.33;15.60;;;;;;;;;;4418989;32;318710;-80
2023/01/17 16:07:19;;;;;;;24.60;12.10;;;;;;;;;;4427505;32;319000;-91
2023/01/17 16:09:48;;;;;;;14.13;8.17;;;;;;;;;;4415644;32;419136;-90
2023/01/17 16:12:15;;;;;;;21.40;13.30;;;;;;;;;;4412331;32;317937;-91
2023/01/17 16:14:44;;;;;;;30.43;20.83;;;;;;;;;;4413665;32;318903;-92
2023/01/17 16:17:17;;;;;;;21.40;14.70;;;;;;;;;;4403810;32;318846;-79
2023/01/17 16:19:44;;;;;;;34.13;19.00;;;;;;;;;;4414849;32;318934;-79